sensor_id;sensor_type;location;lat;lon;timestamp;P1;durP1;ratioP1;P2;durP2;ratioP2
33593;SDS011;19920;52.242;20.940;2024-03-07T00:02:17;21.80;;;13.50;;
33593;SDS011;19920;52.242;20.940;2024-03-07T00:04:43;24.90;;;13.80;;
33593;SDS011;19920;52.242;20.940;2024-03-07T00:07:09;23.15;;;14.32;;
33593;SDS011;19920;52.242;20.940;2024-03-07T00:09:35;23.90;;;14.38;;
33593;SDS011;19920;52.242;20.940;2024-03-07T00:12:01;25.55;;;13.63;;
33593;SDS011;19920;52.242;20.940;2024-03-07T00:14:28;22.70;;;13.77;;
33593;SDS011;19920;52.242;20.940;2024-03-07T00:16:56;24.38;;;14.05;;
33593;SDS011;19920;52.242;20.940;2024-03-07T00:19:24;22.88;;;14.40;;
33593;SDS011;19920;52.242;20.940;2024-03-07T00:21:55;24.42;;;14.27;;
33593;SDS011;19920;52.242;20.940;2024-03-07T00:24:21;23.88;;;13.43;;
33593;SDS011;19920;52.242;20.940;2024-03-07T00:26:48;26.77;;;14.40;;
33593;SDS011;19920;52.242;20.940;2024-03-07T00:29:17;23.80;;;14.63;;
33593;SDS011;19920;52.242;20.940;2024-03-07T00:31:44;21.85;;;13.95;;
33593;SDS011;19920;52.242;20.940;2024-03-07T00:34:12;23.75;;;14.57;;
33593;SDS011;19920;52.242;20.940;2024-03-07T00:36:44;21.85;;;13.85;;
33593;SDS011;19920;52.242;20.940;2024-03-07T00:39:11;23.27;;;14.30;;
33593;SDS011;19920;52.242;20.940;2024-03-07T00:41:37;23.52;;;13.85;;
33593;SDS011;19920;52.242;20.940;2024-03-07T00:44:04;22.98;;;13.35;;
33593;SDS011;19920;52.242;20.940;2024-03-07T00:46:30;23.98;;;13.95;;
33593;SDS011;19920;52.242;20.940;2024-03-07T00:48:55;28.85;;;14.38;;
33593;SDS011;19920;52.242;20.940;2024-03-07T00:51:21;23.00;;;13.95;;
33593;SDS011;19920;52.242;20.940;2024-03-07T00:53:47;23.15;;;13.77;;
33593;SDS011;19920;52.242;20.940;2024-03-07T00:56:13;23.23;;;14.00;;
33593;SDS011;19920;52.242;20.940;2024-03-07T00:58:39;21.38;;;12.98;;
33593;SDS011;19920;52.242;20.940;2024-03-07T01:01:04;23.10;;;14.38;;
33593;SDS011;19920;52.242;20.940;2024-03-07T01:03:30;23.70;;;13.73;;
33593;SDS011;19920;52.242;20.940;2024-03-07T01:05:56;23.73;;;13.82;;
33593;SDS011;19920;52.242;20.940;2024-03-07T01:08:21;25.15;;;13.35;;
33593;SDS011;19920;52.242;20.940;2024-03-07T01:10:47;25.63;;;14.23;;
33593;SDS011;19920;52.242;20.940;2024-03-07T01:13:13;23.08;;;13.88;;
33593;SDS011;19920;52.242;20.940;2024-03-07T01:15:44;21.77;;;13.40;;
33593;SDS011;19920;52.242;20.940;2024-03-07T01:18:10;24.77;;;14.23;;
33593;SDS011;19920;52.242;20.940;2024-03-07T01:20:36;25.27;;;14.40;;
33593;SDS011;19920;52.242;20.940;2024-03-07T01:23:01;23.90;;;13.88;;
33593;SDS011;19920;52.242;20.940;2024-03-07T01:25:27;22.88;;;14.10;;
33593;SDS011;19920;52.242;20.940;2024-03-07T01:27:52;22.33;;;12.98;;
33593;SDS011;19920;52.242;20.940;2024-03-07T01:30:18;27.27;;;14.48;;
33593;SDS011;19920;52.242;20.940;2024-03-07T01:32:44;26.58;;;14.63;;
33593;SDS011;19920;52.242;20.940;2024-03-07T01:35:09;24.40;;;14.02;;
33593;SDS011;19920;52.242;20.940;2024-03-07T01:37:35;25.15;;;14.55;;
33593;SDS011;19920;52.242;20.940;2024-03-07T01:40:01;23.60;;;14.13;;
33593;SDS011;19920;52.242;20.940;2024-03-07T01:42:30;30.57;;;14.63;;
33593;SDS011;19920;52.242;20.940;2024-03-07T01:44:56;26.20;;;13.75;;
33593;SDS011;19920;52.242;20.940;2024-03-07T01:47:21;24.73;;;14.43;;
33593;SDS011;19920;52.242;20.940;2024-03-07T01:49:47;27.00;;;14.88;;
33593;SDS011;19920;52.242;20.940;2024-03-07T01:52:13;25.10;;;14.55;;
33593;SDS011;19920;52.242;20.940;2024-03-07T01:54:39;27.90;;;15.80;;
33593;SDS011;19920;52.242;20.940;2024-03-07T01:57:04;25.08;;;14.52;;
33593;SDS011;19920;52.242;20.940;2024-03-07T01:59:31;26.45;;;15.00;;
33593;SDS011;19920;52.242;20.940;2024-03-07T02:01:58;26.02;;;14.63;;
33593;SDS011;19920;52.242;20.940;2024-03-07T02:04:24;24.70;;;14.38;;
33593;SDS011;19920;52.242;20.940;2024-03-07T02:06:50;26.50;;;15.70;;
33593;SDS011;19920;52.242;20.940;2024-03-07T02:09:15;27.98;;;15.02;;
33593;SDS011;19920;52.242;20.940;2024-03-07T02:11:42;24.75;;;14.63;;
33593;SDS011;19920;52.242;20.940;2024-03-07T02:14:08;26.20;;;15.10;;
33593;SDS011;19920;52.242;20.940;2024-03-07T02:16:33;27.40;;;14.93;;
33593;SDS011;19920;52.242;20.940;2024-03-07T02:18:59;26.02;;;14.98;;
33593;SDS011;19920;52.242;20.940;2024-03-07T02:21:25;25.52;;;14.50;;
33593;SDS011;19920;52.242;20.940;2024-03-07T02:23:51;27.88;;;14.75;;
33593;SDS011;19920;52.242;20.940;2024-03-07T02:26:16;28.40;;;14.73;;
33593;SDS011;19920;52.242;20.940;2024-03-07T02:28:43;29.15;;;15.18;;
33593;SDS011;19920;52.242;20.940;2024-03-07T02:31:09;26.45;;;15.27;;
33593;SDS011;19920;52.242;20.940;2024-03-07T02:33:34;28.05;;;14.63;;
33593;SDS011;19920;52.242;20.940;2024-03-07T02:36:00;26.90;;;14.77;;
33593;SDS011;19920;52.242;20.940;2024-03-07T02:38:26;24.45;;;14.50;;
33593;SDS011;19920;52.242;20.940;2024-03-07T02:40:52;24.20;;;14.13;;
33593;SDS011;19920;52.242;20.940;2024-03-07T02:43:17;23.92;;;14.45;;
33593;SDS011;19920;52.242;20.940;2024-03-07T02:45:43;22.88;;;13.82;;
33593;SDS011;19920;52.242;20.940;2024-03-07T02:48:08;26.23;;;14.77;;
33593;SDS011;19920;52.242;20.940;2024-03-07T02:50:37;24.52;;;15.32;;
33593;SDS011;19920;52.242;20.940;2024-03-07T02:53:06;26.00;;;14.48;;
33593;SDS011;19920;52.242;20.940;2024-03-07T02:55:32;28.08;;;15.57;;
33593;SDS011;19920;52.242;20.940;2024-03-07T02:57:58;25.05;;;14.98;;
33593;SDS011;19920;52.242;20.940;2024-03-07T03:00:24;26.05;;;15.02;;
33593;SDS011;19920;52.242;20.940;2024-03-07T03:02:55;24.02;;;14.43;;
33593;SDS011;19920;52.242;20.940;2024-03-07T03:05:21;27.50;;;14.70;;
33593;SDS011;19920;52.242;20.940;2024-03-07T03:07:47;28.77;;;14.63;;
33593;SDS011;19920;52.242;20.940;2024-03-07T03:10:20;27.42;;;14.80;;
33593;SDS011;19920;52.242;20.940;2024-03-07T03:12:51;27.95;;;14.70;;
33593;SDS011;19920;52.242;20.940;2024-03-07T03:15:18;26.45;;;14.73;;
33593;SDS011;19920;52.242;20.940;2024-03-07T03:17:46;28.50;;;14.95;;
33593;SDS011;19920;52.242;20.940;2024-03-07T03:20:12;26.10;;;14.68;;
33593;SDS011;19920;52.242;20.940;2024-03-07T03:23:05;29.27;;;14.63;;
33593;SDS011;19920;52.242;20.940;2024-03-07T03:25:31;27.50;;;15.18;;
33593;SDS011;19920;52.242;20.940;2024-03-07T03:28:00;26.70;;;14.98;;
33593;SDS011;19920;52.242;20.940;2024-03-07T03:30:28;30.48;;;15.48;;
33593;SDS011;19920;52.242;20.940;2024-03-07T03:32:54;27.25;;;14.77;;
33593;SDS011;19920;52.242;20.940;2024-03-07T03:35:20;29.75;;;15.77;;
33593;SDS011;19920;52.242;20.940;2024-03-07T03:37:46;28.58;;;15.90;;
33593;SDS011;19920;52.242;20.940;2024-03-07T03:40:11;27.27;;;15.18;;
33593;SDS011;19920;52.242;20.940;2024-03-07T03:42:41;28.95;;;14.95;;
33593;SDS011;19920;52.242;20.940;2024-03-07T03:45:08;25.85;;;14.93;;
33593;SDS011;19920;52.242;20.940;2024-03-07T03:47:39;28.58;;;15.00;;
33593;SDS011;19920;52.242;20.940;2024-03-07T03:50:05;30.02;;;14.75;;
33593;SDS011;19920;52.242;20.940;2024-03-07T03:52:32;27.42;;;14.27;;
33593;SDS011;19920;52.242;20.940;2024-03-07T03:54:58;28.75;;;15.52;;
33593;SDS011;19920;52.242;20.940;2024-03-07T03:57:24;27.92;;;14.60;;
33593;SDS011;19920;52.242;20.940;2024-03-07T03:59:51;28.75;;;15.60;;
33593;SDS011;19920;52.242;20.940;2024-03-07T04:02:17;26.80;;;15.15;;
33593;SDS011;19920;52.242;20.940;2024-03-07T04:04:43;26.55;;;14.07;;
33593;SDS011;19920;52.242;20.940;2024-03-07T04:07:10;29.27;;;15.82;;
33593;SDS011;19920;52.242;20.940;2024-03-07T04:09:37;27.83;;;14.57;;
33593;SDS011;19920;52.242;20.940;2024-03-07T04:12:03;28.70;;;14.82;;
33593;SDS011;19920;52.242;20.940;2024-03-07T04:14:30;28.67;;;15.82;;
33593;SDS011;19920;52.242;20.940;2024-03-07T04:16:58;26.65;;;14.25;;
33593;SDS011;19920;52.242;20.940;2024-03-07T04:19:23;26.30;;;14.65;;
33593;SDS011;19920;52.242;20.940;2024-03-07T04:21:50;28.75;;;15.05;;
33593;SDS011;19920;52.242;20.940;2024-03-07T04:24:16;26.77;;;15.65;;
33593;SDS011;19920;52.242;20.940;2024-03-07T04:26:42;35.28;;;18.48;;
33593;SDS011;19920;52.242;20.940;2024-03-07T04:29:08;27.58;;;15.20;;
33593;SDS011;19920;52.242;20.940;2024-03-07T04:31:34;31.50;;;15.30;;
33593;SDS011;19920;52.242;20.940;2024-03-07T04:33:59;27.85;;;14.88;;
33593;SDS011;19920;52.242;20.940;2024-03-07T04:36:25;29.83;;;15.13;;
33593;SDS011;19920;52.242;20.940;2024-03-07T04:38:51;27.63;;;15.10;;
33593;SDS011;19920;52.242;20.940;2024-03-07T04:41:17;26.38;;;15.27;;
33593;SDS011;19920;52.242;20.940;2024-03-07T04:43:43;28.08;;;15.65;;
33593;SDS011;19920;52.242;20.940;2024-03-07T04:46:09;29.02;;;15.27;;
33593;SDS011;19920;52.242;20.940;2024-03-07T04:48:35;31.85;;;14.88;;
33593;SDS011;19920;52.242;20.940;2024-03-07T04:51:01;29.00;;;15.15;;
33593;SDS011;19920;52.242;20.940;2024-03-07T04:53:28;25.55;;;14.38;;
33593;SDS011;19920;52.242;20.940;2024-03-07T04:55:54;30.90;;;15.65;;
33593;SDS011;19920;52.242;20.940;2024-03-07T04:58:21;34.10;;;15.38;;
33593;SDS011;19920;52.242;20.940;2024-03-07T05:00:47;29.10;;;14.50;;
33593;SDS011;19920;52.242;20.940;2024-03-07T05:03:12;27.20;;;14.52;;
33593;SDS011;19920;52.242;20.940;2024-03-07T05:05:38;29.88;;;14.43;;
33593;SDS011;19920;52.242;20.940;2024-03-07T05:08:03;30.08;;;15.98;;
33593;SDS011;19920;52.242;20.940;2024-03-07T05:10:29;28.92;;;14.95;;
33593;SDS011;19920;52.242;20.940;2024-03-07T05:12:55;29.27;;;15.95;;
33593;SDS011;19920;52.242;20.940;2024-03-07T05:15:23;27.20;;;14.25;;
33593;SDS011;19920;52.242;20.940;2024-03-07T05:17:51;28.05;;;14.38;;
33593;SDS011;19920;52.242;20.940;2024-03-07T05:20:17;31.58;;;15.15;;
33593;SDS011;19920;52.242;20.940;2024-03-07T05:22:43;29.33;;;15.05;;
33593;SDS011;19920;52.242;20.940;2024-03-07T05:25:18;30.08;;;15.35;;
33593;SDS011;19920;52.242;20.940;2024-03-07T05:27:44;29.17;;;15.75;;
33593;SDS011;19920;52.242;20.940;2024-03-07T05:30:11;28.77;;;15.32;;
33593;SDS011;19920;52.242;20.940;2024-03-07T05:32:38;33.67;;;15.77;;
33593;SDS011;19920;52.242;20.940;2024-03-07T05:35:05;30.40;;;15.15;;
33593;SDS011;19920;52.242;20.940;2024-03-07T05:37:31;28.20;;;15.15;;
33593;SDS011;19920;52.242;20.940;2024-03-07T05:39:57;28.00;;;15.35;;
33593;SDS011;19920;52.242;20.940;2024-03-07T05:42:23;26.42;;;14.60;;
33593;SDS011;19920;52.242;20.940;2024-03-07T05:44:50;28.17;;;15.77;;
33593;SDS011;19920;52.242;20.940;2024-03-07T05:47:16;29.55;;;14.32;;
33593;SDS011;19920;52.242;20.940;2024-03-07T05:49:42;26.45;;;15.05;;
33593;SDS011;19920;52.242;20.940;2024-03-07T05:52:08;28.17;;;14.45;;
33593;SDS011;19920;52.242;20.940;2024-03-07T05:54:34;29.15;;;14.93;;
33593;SDS011;19920;52.242;20.940;2024-03-07T05:57:00;29.65;;;14.35;;
33593;SDS011;19920;52.242;20.940;2024-03-07T05:59:26;28.98;;;14.07;;
33593;SDS011;19920;52.242;20.940;2024-03-07T06:01:58;26.02;;;13.35;;
33593;SDS011;19920;52.242;20.940;2024-03-07T06:04:24;30.92;;;14.23;;
33593;SDS011;19920;52.242;20.940;2024-03-07T06:06:50;27.85;;;14.43;;
33593;SDS011;19920;52.242;20.940;2024-03-07T06:09:16;28.65;;;13.30;;
33593;SDS011;19920;52.242;20.940;2024-03-07T06:11:46;29.08;;;14.48;;
33593;SDS011;19920;52.242;20.940;2024-03-07T06:14:12;25.95;;;13.68;;
33593;SDS011;19920;52.242;20.940;2024-03-07T06:16:38;31.63;;;14.35;;
33593;SDS011;19920;52.242;20.940;2024-03-07T06:19:06;29.88;;;13.60;;
33593;SDS011;19920;52.242;20.940;2024-03-07T06:21:33;25.40;;;13.65;;
33593;SDS011;19920;52.242;20.940;2024-03-07T06:23:59;28.25;;;14.05;;
33593;SDS011;19920;52.242;20.940;2024-03-07T06:26:29;26.95;;;13.95;;
33593;SDS011;19920;52.242;20.940;2024-03-07T06:29:05;27.88;;;12.88;;
33593;SDS011;19920;52.242;20.940;2024-03-07T06:31:31;32.72;;;12.43;;
33593;SDS011;19920;52.242;20.940;2024-03-07T06:33:57;25.33;;;12.70;;
33593;SDS011;19920;52.242;20.940;2024-03-07T06:36:23;27.02;;;13.75;;
33593;SDS011;19920;52.242;20.940;2024-03-07T06:38:50;25.80;;;13.63;;
33593;SDS011;19920;52.242;20.940;2024-03-07T06:41:16;23.80;;;13.02;;
33593;SDS011;19920;52.242;20.940;2024-03-07T06:43:43;20.90;;;12.38;;
33593;SDS011;19920;52.242;20.940;2024-03-07T06:46:09;22.10;;;12.40;;
33593;SDS011;19920;52.242;20.940;2024-03-07T06:48:35;22.60;;;12.68;;
33593;SDS011;19920;52.242;20.940;2024-03-07T06:51:01;24.67;;;11.68;;
33593;SDS011;19920;52.242;20.940;2024-03-07T06:53:27;26.02;;;13.02;;
33593;SDS011;19920;52.242;20.940;2024-03-07T06:55:53;25.52;;;14.05;;
33593;SDS011;19920;52.242;20.940;2024-03-07T06:58:20;20.98;;;12.13;;
33593;SDS011;19920;52.242;20.940;2024-03-07T07:00:46;25.20;;;12.32;;
33593;SDS011;19920;52.242;20.940;2024-03-07T07:03:11;20.95;;;11.85;;
33593;SDS011;19920;52.242;20.940;2024-03-07T07:05:39;19.50;;;11.43;;
33593;SDS011;19920;52.242;20.940;2024-03-07T07:08:09;24.05;;;12.20;;
33593;SDS011;19920;52.242;20.940;2024-03-07T07:10:36;26.77;;;12.73;;
33593;SDS011;19920;52.242;20.940;2024-03-07T07:13:02;22.83;;;11.45;;
33593;SDS011;19920;52.242;20.940;2024-03-07T07:15:29;24.20;;;11.60;;
33593;SDS011;19920;52.242;20.940;2024-03-07T07:17:55;18.92;;;10.77;;
33593;SDS011;19920;52.242;20.940;2024-03-07T07:20:20;19.52;;;10.45;;
33593;SDS011;19920;52.242;20.940;2024-03-07T07:22:49;18.70;;;10.20;;
33593;SDS011;19920;52.242;20.940;2024-03-07T07:25:15;20.88;;;10.05;;
33593;SDS011;19920;52.242;20.940;2024-03-07T07:27:50;20.00;;;10.15;;
33593;SDS011;19920;52.242;20.940;2024-03-07T07:30:17;19.23;;;10.13;;
33593;SDS011;19920;52.242;20.940;2024-03-07T07:32:45;19.92;;;9.85;;
33593;SDS011;19920;52.242;20.940;2024-03-07T07:35:11;20.70;;;10.80;;
33593;SDS011;19920;52.242;20.940;2024-03-07T07:37:38;16.73;;;9.50;;
33593;SDS011;19920;52.242;20.940;2024-03-07T07:40:11;16.35;;;9.15;;
33593;SDS011;19920;52.242;20.940;2024-03-07T07:42:43;17.85;;;9.07;;
33593;SDS011;19920;52.242;20.940;2024-03-07T07:45:09;16.85;;;8.80;;
33593;SDS011;19920;52.242;20.940;2024-03-07T07:47:39;18.00;;;9.05;;
33593;SDS011;19920;52.242;20.940;2024-03-07T07:50:14;13.85;;;7.47;;
33593;SDS011;19920;52.242;20.940;2024-03-07T07:52:43;11.30;;;6.27;;
33593;SDS011;19920;52.242;20.940;2024-03-07T07:57:54;12.43;;;7.38;;
33593;SDS011;19920;52.242;20.940;2024-03-07T08:00:22;13.52;;;8.45;;
33593;SDS011;19920;52.242;20.940;2024-03-07T08:05:24;15.05;;;7.97;;
33593;SDS011;19920;52.242;20.940;2024-03-07T08:07:52;14.50;;;7.72;;
33593;SDS011;19920;52.242;20.940;2024-03-07T08:10:20;14.45;;;8.10;;
33593;SDS011;19920;52.242;20.940;2024-03-07T08:12:48;13.43;;;7.32;;
33593;SDS011;19920;52.242;20.940;2024-03-07T08:15:14;11.02;;;7.03;;
33593;SDS011;19920;52.242;20.940;2024-03-07T08:17:41;12.73;;;7.18;;
33593;SDS011;19920;52.242;20.940;2024-03-07T08:20:12;12.52;;;7.13;;
33593;SDS011;19920;52.242;20.940;2024-03-07T08:22:39;14.93;;;7.57;;
33593;SDS011;19920;52.242;20.940;2024-03-07T08:25:06;11.98;;;6.93;;
33593;SDS011;19920;52.242;20.940;2024-03-07T08:27:34;12.68;;;6.93;;
33593;SDS011;19920;52.242;20.940;2024-03-07T08:30:01;14.05;;;6.70;;
33593;SDS011;19920;52.242;20.940;2024-03-07T08:32:27;11.13;;;6.38;;
33593;SDS011;19920;52.242;20.940;2024-03-07T08:34:53;12.20;;;6.72;;
33593;SDS011;19920;52.242;20.940;2024-03-07T08:37:18;11.38;;;7.05;;
33593;SDS011;19920;52.242;20.940;2024-03-07T08:39:45;13.90;;;6.70;;
33593;SDS011;19920;52.242;20.940;2024-03-07T08:42:11;10.82;;;6.68;;
33593;SDS011;19920;52.242;20.940;2024-03-07T08:44:36;10.52;;;6.38;;
33593;SDS011;19920;52.242;20.940;2024-03-07T08:47:02;11.52;;;6.88;;
33593;SDS011;19920;52.242;20.940;2024-03-07T08:49:28;11.45;;;6.38;;
33593;SDS011;19920;52.242;20.940;2024-03-07T08:51:54;14.10;;;6.13;;
33593;SDS011;19920;52.242;20.940;2024-03-07T08:54:19;13.38;;;7.18;;
33593;SDS011;19920;52.242;20.940;2024-03-07T08:56:45;11.75;;;7.38;;
33593;SDS011;19920;52.242;20.940;2024-03-07T08:59:11;11.95;;;7.05;;
33593;SDS011;19920;52.242;20.940;2024-03-07T09:01:40;12.00;;;7.18;;
33593;SDS011;19920;52.242;20.940;2024-03-07T09:04:08;12.23;;;6.20;;
33593;SDS011;19920;52.242;20.940;2024-03-07T09:06:34;10.15;;;6.20;;
33593;SDS011;19920;52.242;20.940;2024-03-07T09:09:00;10.23;;;6.50;;
33593;SDS011;19920;52.242;20.940;2024-03-07T09:11:25;11.10;;;6.60;;
33593;SDS011;19920;52.242;20.940;2024-03-07T09:13:51;9.82;;;6.40;;
33593;SDS011;19920;52.242;20.940;2024-03-07T09:16:16;11.13;;;6.35;;
33593;SDS011;19920;52.242;20.940;2024-03-07T09:18:42;10.57;;;6.32;;
33593;SDS011;19920;52.242;20.940;2024-03-07T09:21:08;11.13;;;6.07;;
33593;SDS011;19920;52.242;20.940;2024-03-07T09:23:34;8.88;;;5.50;;
33593;SDS011;19920;52.242;20.940;2024-03-07T09:25:59;9.40;;;5.80;;
33593;SDS011;19920;52.242;20.940;2024-03-07T09:28:27;10.57;;;5.88;;
33593;SDS011;19920;52.242;20.940;2024-03-07T09:30:53;8.43;;;5.10;;
33593;SDS011;19920;52.242;20.940;2024-03-07T09:33:20;9.00;;;5.47;;
33593;SDS011;19920;52.242;20.940;2024-03-07T09:35:46;10.20;;;5.82;;
33593;SDS011;19920;52.242;20.940;2024-03-07T09:38:13;8.77;;;5.40;;
33593;SDS011;19920;52.242;20.940;2024-03-07T09:40:39;9.75;;;5.38;;
33593;SDS011;19920;52.242;20.940;2024-03-07T09:43:06;7.30;;;5.22;;
33593;SDS011;19920;52.242;20.940;2024-03-07T09:45:35;7.95;;;5.22;;
33593;SDS011;19920;52.242;20.940;2024-03-07T09:48:03;10.40;;;4.68;;
33593;SDS011;19920;52.242;20.940;2024-03-07T09:50:29;9.45;;;5.03;;
33593;SDS011;19920;52.242;20.940;2024-03-07T09:52:56;9.93;;;5.32;;
33593;SDS011;19920;52.242;20.940;2024-03-07T09:55:23;9.70;;;5.70;;
33593;SDS011;19920;52.242;20.940;2024-03-07T09:57:49;7.82;;;4.82;;
33593;SDS011;19920;52.242;20.940;2024-03-07T10:00:18;9.00;;;5.25;;
33593;SDS011;19920;52.242;20.940;2024-03-07T10:02:59;10.02;;;4.88;;
33593;SDS011;19920;52.242;20.940;2024-03-07T10:05:30;8.45;;;4.95;;
33593;SDS011;19920;52.242;20.940;2024-03-07T10:07:56;9.70;;;5.45;;
33593;SDS011;19920;52.242;20.940;2024-03-07T10:10:22;9.90;;;5.47;;
33593;SDS011;19920;52.242;20.940;2024-03-07T10:12:49;8.13;;;5.43;;
33593;SDS011;19920;52.242;20.940;2024-03-07T10:15:15;8.30;;;5.20;;
33593;SDS011;19920;52.242;20.940;2024-03-07T10:17:42;8.55;;;5.38;;
33593;SDS011;19920;52.242;20.940;2024-03-07T10:20:09;8.68;;;4.95;;
33593;SDS011;19920;52.242;20.940;2024-03-07T10:22:39;6.85;;;4.60;;
33593;SDS011;19920;52.242;20.940;2024-03-07T10:25:07;7.80;;;4.90;;
33593;SDS011;19920;52.242;20.940;2024-03-07T10:27:35;8.23;;;5.05;;
33593;SDS011;19920;52.242;20.940;2024-03-07T10:30:02;7.60;;;5.35;;
33593;SDS011;19920;52.242;20.940;2024-03-07T10:32:28;9.95;;;5.07;;
33593;SDS011;19920;52.242;20.940;2024-03-07T10:34:55;8.05;;;4.75;;
33593;SDS011;19920;52.242;20.940;2024-03-07T10:37:21;9.35;;;5.30;;
33593;SDS011;19920;52.242;20.940;2024-03-07T10:39:47;9.27;;;5.47;;
33593;SDS011;19920;52.242;20.940;2024-03-07T10:42:17;12.60;;;5.87;;
33593;SDS011;19920;52.242;20.940;2024-03-07T10:44:47;7.53;;;5.53;;
33593;SDS011;19920;52.242;20.940;2024-03-07T10:47:17;8.23;;;5.05;;
33593;SDS011;19920;52.242;20.940;2024-03-07T10:52:39;9.93;;;5.65;;
33593;SDS011;19920;52.242;20.940;2024-03-07T10:58:02;7.68;;;5.25;;
33593;SDS011;19920;52.242;20.940;2024-03-07T11:00:36;9.02;;;5.55;;
33593;SDS011;19920;52.242;20.940;2024-03-07T11:03:04;8.55;;;5.63;;
33593;SDS011;19920;52.242;20.940;2024-03-07T11:05:34;9.52;;;5.45;;
33593;SDS011;19920;52.242;20.940;2024-03-07T11:08:00;9.68;;;5.93;;
33593;SDS011;19920;52.242;20.940;2024-03-07T11:10:34;8.18;;;5.10;;
33593;SDS011;19920;52.242;20.940;2024-03-07T11:13:11;9.48;;;5.88;;
33593;SDS011;19920;52.242;20.940;2024-03-07T11:15:42;9.65;;;6.05;;
33593;SDS011;19920;52.242;20.940;2024-03-07T11:18:10;9.90;;;6.32;;
33593;SDS011;19920;52.242;20.940;2024-03-07T11:20:38;12.65;;;6.53;;
33593;SDS011;19920;52.242;20.940;2024-03-07T11:25:54;10.25;;;5.50;;
33593;SDS011;19920;52.242;20.940;2024-03-07T11:28:27;9.00;;;5.43;;
33593;SDS011;19920;52.242;20.940;2024-03-07T11:30:54;7.82;;;4.85;;
33593;SDS011;19920;52.242;20.940;2024-03-07T11:33:19;8.65;;;5.90;;
33593;SDS011;19920;52.242;20.940;2024-03-07T11:35:49;10.00;;;6.22;;
33593;SDS011;19920;52.242;20.940;2024-03-07T11:38:14;12.02;;;6.03;;
33593;SDS011;19920;52.242;20.940;2024-03-07T11:43:08;13.43;;;6.22;;
33593;SDS011;19920;52.242;20.940;2024-03-07T11:45:37;9.90;;;6.00;;
33593;SDS011;19920;52.242;20.940;2024-03-07T11:48:17;8.65;;;5.80;;
33593;SDS011;19920;52.242;20.940;2024-03-07T11:50:45;8.73;;;5.47;;
33593;SDS011;19920;52.242;20.940;2024-03-07T11:53:11;13.77;;;6.57;;
33593;SDS011;19920;52.242;20.940;2024-03-07T11:55:38;9.38;;;6.10;;
33593;SDS011;19920;52.242;20.940;2024-03-07T11:58:11;11.65;;;5.57;;
33593;SDS011;19920;52.242;20.940;2024-03-07T12:00:41;9.13;;;5.63;;
33593;SDS011;19920;52.242;20.940;2024-03-07T12:03:10;11.35;;;6.35;;
33593;SDS011;19920;52.242;20.940;2024-03-07T12:05:42;9.75;;;5.72;;
33593;SDS011;19920;52.242;20.940;2024-03-07T12:08:08;9.07;;;5.60;;
33593;SDS011;19920;52.242;20.940;2024-03-07T12:10:39;9.05;;;5.78;;
33593;SDS011;19920;52.242;20.940;2024-03-07T12:13:08;11.65;;;5.70;;
33593;SDS011;19920;52.242;20.940;2024-03-07T12:15:36;8.38;;;5.85;;
33593;SDS011;19920;52.242;20.940;2024-03-07T12:18:03;15.48;;;6.72;;
33593;SDS011;19920;52.242;20.940;2024-03-07T12:20:29;11.25;;;6.18;;
33593;SDS011;19920;52.242;20.940;2024-03-07T12:23:01;8.38;;;5.15;;
33593;SDS011;19920;52.242;20.940;2024-03-07T12:25:28;8.25;;;5.05;;
33593;SDS011;19920;52.242;20.940;2024-03-07T12:28:12;9.13;;;5.43;;
33593;SDS011;19920;52.242;20.940;2024-03-07T12:33:20;10.20;;;5.60;;
33593;SDS011;19920;52.242;20.940;2024-03-07T12:35:48;9.93;;;5.30;;
33593;SDS011;19920;52.242;20.940;2024-03-07T12:38:17;8.55;;;5.70;;
33593;SDS011;19920;52.242;20.940;2024-03-07T12:40:43;10.45;;;5.57;;
33593;SDS011;19920;52.242;20.940;2024-03-07T12:43:17;8.82;;;5.82;;
33593;SDS011;19920;52.242;20.940;2024-03-07T12:48:16;12.65;;;5.78;;
33593;SDS011;19920;52.242;20.940;2024-03-07T12:50:45;7.45;;;5.07;;
33593;SDS011;19920;52.242;20.940;2024-03-07T12:53:12;11.23;;;5.47;;
33593;SDS011;19920;52.242;20.940;2024-03-07T12:55:38;8.23;;;5.65;;
33593;SDS011;19920;52.242;20.940;2024-03-07T12:58:07;10.20;;;5.85;;
33593;SDS011;19920;52.242;20.940;2024-03-07T13:00:34;7.68;;;5.40;;
33593;SDS011;19920;52.242;20.940;2024-03-07T13:03:00;8.50;;;5.78;;
33593;SDS011;19920;52.242;20.940;2024-03-07T13:05:26;9.32;;;5.80;;
33593;SDS011;19920;52.242;20.940;2024-03-07T13:07:52;9.43;;;5.50;;
33593;SDS011;19920;52.242;20.940;2024-03-07T13:10:18;10.15;;;5.53;;
33593;SDS011;19920;52.242;20.940;2024-03-07T13:12:45;9.43;;;5.75;;
33593;SDS011;19920;52.242;20.940;2024-03-07T13:15:18;7.85;;;5.65;;
33593;SDS011;19920;52.242;20.940;2024-03-07T13:17:47;7.07;;;5.15;;
33593;SDS011;19920;52.242;20.940;2024-03-07T13:20:14;9.35;;;5.28;;
33593;SDS011;19920;52.242;20.940;2024-03-07T13:22:40;8.13;;;5.45;;
33593;SDS011;19920;52.242;20.940;2024-03-07T13:25:13;8.25;;;5.35;;
33593;SDS011;19920;52.242;20.940;2024-03-07T13:27:56;8.85;;;5.28;;
33593;SDS011;19920;52.242;20.940;2024-03-07T13:30:26;7.90;;;5.80;;
33593;SDS011;19920;52.242;20.940;2024-03-07T13:32:52;9.70;;;5.47;;
33593;SDS011;19920;52.242;20.940;2024-03-07T13:37:48;8.90;;;5.93;;
33593;SDS011;19920;52.242;20.940;2024-03-07T13:40:15;8.45;;;5.60;;
33593;SDS011;19920;52.242;20.940;2024-03-07T13:42:50;8.40;;;5.80;;
33593;SDS011;19920;52.242;20.940;2024-03-07T13:45:21;9.02;;;5.85;;
33593;SDS011;19920;52.242;20.940;2024-03-07T13:47:48;11.77;;;5.93;;
33593;SDS011;19920;52.242;20.940;2024-03-07T13:50:15;17.63;;;6.32;;
33593;SDS011;19920;52.242;20.940;2024-03-07T13:52:44;18.50;;;6.82;;
33593;SDS011;19920;52.242;20.940;2024-03-07T13:55:33;11.85;;;5.82;;
33593;SDS011;19920;52.242;20.940;2024-03-07T14:03:51;8.18;;;5.70;;
33593;SDS011;19920;52.242;20.940;2024-03-07T14:06:50;21.02;;;5.95;;
33593;SDS011;19920;52.242;20.940;2024-03-07T14:12:34;12.23;;;5.75;;
33593;SDS011;19920;52.242;20.940;2024-03-07T14:18:49;14.77;;;6.07;;
33593;SDS011;19920;52.242;20.940;2024-03-07T14:27:32;8.90;;;5.35;;
33593;SDS011;19920;52.242;20.940;2024-03-07T14:33:08;10.30;;;6.70;;
33593;SDS011;19920;52.242;20.940;2024-03-07T14:35:35;14.00;;;6.05;;
33593;SDS011;19920;52.242;20.940;2024-03-07T14:38:25;11.77;;;5.93;;
33593;SDS011;19920;52.242;20.940;2024-03-07T14:41:12;9.77;;;6.18;;
33593;SDS011;19920;52.242;20.940;2024-03-07T14:43:40;16.55;;;6.40;;
33593;SDS011;19920;52.242;20.940;2024-03-07T14:46:06;9.30;;;5.60;;
33593;SDS011;19920;52.242;20.940;2024-03-07T14:48:34;10.68;;;5.22;;
33593;SDS011;19920;52.242;20.940;2024-03-07T14:51:00;8.55;;;5.45;;
33593;SDS011;19920;52.242;20.940;2024-03-07T14:53:28;8.15;;;5.60;;
33593;SDS011;19920;52.242;20.940;2024-03-07T14:55:53;10.77;;;5.97;;
33593;SDS011;19920;52.242;20.940;2024-03-07T14:58:21;10.07;;;6.15;;
33593;SDS011;19920;52.242;20.940;2024-03-07T15:00:46;15.85;;;5.95;;
33593;SDS011;19920;52.242;20.940;2024-03-07T15:03:15;9.82;;;5.35;;
33593;SDS011;19920;52.242;20.940;2024-03-07T15:05:44;13.07;;;6.60;;
33593;SDS011;19920;52.242;20.940;2024-03-07T15:08:11;13.23;;;6.13;;